Pagrindinis puslapis
METAR-TAF:

METAR-TAF

Oro uostai :

Singapūras, Singapūras

platuma: 01-22N, ilguma: 103-59E, Aukštis: 5 m

Dabartinis oras

Ataskaita buvo paskelbta 23 minutes, ne 20:30 UTC
Vėjas 7 kt iš Pietryčių
Temperatūra 27°C
Drėgmė 84%
Slėgis 1009 hPa
Matomumas: 3000 m
Mažai debesys ne aukštis 1800 ft
Išsisklaidę debesys ne aukštis 28000 ft
migla

METAR: WSSS 202030Z 14007KT 3000 HZ FEW018 SCT280 27/24 Q1009 NOSIG

Laikas: 04:53 (20:53 UTC)

Prognozė

Ataskaita buvo paskelbta 3 valandos ir 53 minutes, ne 17:00 UTC
Prognozė galioja nuo 20 metu 18 UTC su 22 metu 00 UTC
Vėjas 10 kt iš Pietryčių
Matomumas: 7000 m
Mažai debesys ne aukštis 1500 ft
Išsisklaidę debesys ne aukštis 2000 ft
Laikinai
nuo 20 metu 19 UTC su 21 metu 01 UTC
Matomumas: 4500 m
migla

TAF: WSSS 201700Z 2018/2200 14010KT 7000 FEW015 SCT020 TEMPO 2019/2101 4500 HZ

Orai ataskaitas ir orų prognozės (METAR, TAF).

turimą stotys yra geltonos ir raudonos taškus žemėlapyje.

Perkelti pele per norėdami pamatyti stoties vardą.

Tada spustelėkite, norėdami matyti oro stebėjimo ir prognozės.

Norėdami pakeisti žemėlapį: spustelėkite ant žalios mygtukų su juodo kryžiaus žemyn,; žalią mygtuką su brūkšneliu, jei norite nutolinti; arba žalių rodyklių gretimoms žemėlapius.


METAR-TAF: